createdAt,value
2022-08-12T00:01:03.519Z,17.64
2022-08-12T00:03:51.261Z,17.61
2022-08-12T00:06:39.542Z,17.52
2022-08-12T00:09:26.552Z,17.45
2022-08-12T00:12:13.305Z,17.29
2022-08-12T00:15:01.194Z,17.26
2022-08-12T00:17:47.450Z,17.23
2022-08-12T00:20:33.477Z,17.19
2022-08-12T00:23:19.437Z,17.15
2022-08-12T00:26:22.667Z,17.22
2022-08-12T00:29:13.207Z,17.23
2022-08-12T00:32:01.314Z,17.15
2022-08-12T00:34:51.561Z,17.02
2022-08-12T00:37:40.246Z,17.07
2022-08-12T00:40:28.406Z,17.03
2022-08-12T00:42:56.760Z,16.98
2022-08-12T00:45:24.463Z,17.03
2022-08-12T00:47:53.443Z,17.02
2022-08-12T00:50:23.700Z,16.95
2022-08-12T00:52:53.073Z,16.95
2022-08-12T00:55:21.464Z,16.84
2022-08-12T00:57:50.907Z,16.85
2022-08-12T01:00:24.298Z,16.86
2022-08-12T01:02:55.712Z,16.90
2022-08-12T01:05:42.770Z,16.85
2022-08-12T01:08:29.024Z,16.77
2022-08-12T01:11:15.883Z,16.88
2022-08-12T01:13:50.031Z,16.98
2022-08-12T01:16:22.761Z,17.07
2022-08-12T01:18:54.944Z,17.12
2022-08-12T01:21:27.875Z,17.18
2022-08-12T01:24:22.927Z,17.20
2022-08-12T01:26:57.078Z,17.13
2022-08-12T01:29:28.568Z,17.12
2022-08-12T01:32:06.320Z,16.95
2022-08-12T01:34:37.343Z,16.92
2022-08-12T01:37:10.037Z,16.71
2022-08-12T01:40:36.250Z,16.59
2022-08-12T01:42:44.283Z,16.54
2022-08-12T01:45:12.535Z,16.64
2022-08-12T01:47:51.778Z,16.59
2022-08-12T01:50:29.965Z,16.59
2022-08-12T01:53:06.457Z,16.49
2022-08-12T01:55:37.171Z,16.55
2022-08-12T01:58:11.766Z,16.50
2022-08-12T02:00:55.450Z,16.43
2022-08-12T02:04:06.895Z,16.33
2022-08-12T02:07:11.434Z,16.36
2022-08-12T02:10:50.084Z,16.23
2022-08-12T02:13:49.712Z,16.22
2022-08-12T02:16:28.029Z,16.27
2022-08-12T02:19:23.042Z,16.24
2022-08-12T02:22:13.029Z,16.24
2022-08-12T02:24:43.959Z,16.26
2022-08-12T02:27:13.410Z,16.33
2022-08-12T02:29:41.034Z,16.27
2022-08-12T02:32:08.925Z,16.30
2022-08-12T02:34:37.244Z,16.34
2022-08-12T02:37:04.740Z,16.25
2022-08-12T02:39:35.715Z,16.23
2022-08-12T02:42:04.758Z,16.20
2022-08-12T02:44:40.244Z,16.08
2022-08-12T02:47:58.719Z,16.00
2022-08-12T02:49:58.759Z,16.08
2022-08-12T02:52:27.388Z,16.04
2022-08-12T02:55:13.339Z,15.92
2022-08-12T02:57:58.540Z,15.91
2022-08-12T03:00:26.123Z,15.95
2022-08-12T03:02:59.721Z,15.98
2022-08-12T03:05:27.967Z,16.03
2022-08-12T03:08:00.361Z,15.95
2022-08-12T03:10:37.603Z,15.93
2022-08-12T03:13:07.434Z,15.97
2022-08-12T03:15:35.925Z,16.00
2022-08-12T03:18:28.933Z,15.90
2022-08-12T03:20:58.274Z,15.77
2022-08-12T03:23:29.830Z,15.96
2022-08-12T03:26:00.636Z,16.06
2022-08-12T03:28:49.595Z,16.19
2022-08-12T03:31:19.217Z,16.20
2022-08-12T03:34:01.520Z,16.20
2022-08-12T03:36:35.716Z,16.30
2022-08-12T03:39:35.575Z,16.15
2022-08-12T03:42:28.216Z,16.15
2022-08-12T03:45:42.076Z,16.32
2022-08-12T03:48:38.872Z,16.42
2022-08-12T03:51:24.773Z,16.47
2022-08-12T03:54:11.493Z,16.47
2022-08-12T03:56:57.943Z,16.46
2022-08-12T03:59:43.885Z,16.43
2022-08-12T04:02:15.643Z,16.41
2022-08-12T04:04:45.538Z,16.47
2022-08-12T04:07:14.336Z,16.42
2022-08-12T04:09:43.829Z,16.47
2022-08-12T04:12:32.937Z,16.47
2022-08-12T04:15:01.653Z,16.59
2022-08-12T04:17:29.323Z,16.53
2022-08-12T04:19:57.959Z,16.61
2022-08-12T04:22:29.703Z,16.67
2022-08-12T04:25:02.157Z,16.67
2022-08-12T04:27:31.663Z,16.76
2022-08-12T04:30:21.355Z,16.97
2022-08-12T04:32:50.595Z,16.88
2022-08-12T04:35:18.225Z,16.87
2022-08-12T04:37:58.797Z,16.89
2022-08-12T04:40:31.117Z,17.04
2022-08-12T04:42:58.706Z,17.21
2022-08-12T04:45:25.761Z,17.27
2022-08-12T04:47:52.953Z,17.42
2022-08-12T04:50:33.998Z,17.40
2022-08-12T04:53:03.294Z,17.48
2022-08-12T04:55:30.274Z,17.56
2022-08-12T04:57:57.151Z,17.69
2022-08-12T05:00:24.234Z,17.86
2022-08-12T05:02:52.398Z,17.85
2022-08-12T05:05:23.082Z,17.95
2022-08-12T05:07:54.856Z,17.97
2022-08-12T05:10:33.584Z,18.04
2022-08-12T05:13:14.331Z,18.05
2022-08-12T05:16:02.356Z,18.15
2022-08-12T05:18:39.098Z,18.19
2022-08-12T05:21:08.102Z,18.26
2022-08-12T05:23:39.765Z,18.34
2022-08-12T05:26:07.383Z,18.42
2022-08-12T05:28:34.620Z,18.42
2022-08-12T05:31:02.114Z,18.44
2022-08-12T05:33:38.389Z,18.50
2022-08-12T05:36:12.637Z,18.66
2022-08-12T05:38:58.368Z,18.69
2022-08-12T05:41:32.927Z,18.79
2022-08-12T05:44:08.555Z,18.82
2022-08-12T05:46:37.031Z,19.01
2022-08-12T05:49:05.762Z,19.13
2022-08-12T05:51:40.911Z,19.23
2022-08-12T05:54:11.367Z,19.06
2022-08-12T05:56:40.856Z,19.05
2022-08-12T05:59:11.236Z,19.22
2022-08-12T06:02:09.790Z,19.38
2022-08-12T06:04:27.218Z,19.64
2022-08-12T06:06:54.499Z,19.81
2022-08-12T06:09:22.800Z,20.16
2022-08-12T06:11:59.892Z,20.51
2022-08-12T06:14:39.209Z,20.76
2022-08-12T06:17:09.124Z,20.83
2022-08-12T06:20:29.454Z,21.34
2022-08-12T06:22:26.691Z,22.63
2022-08-12T06:24:54.246Z,24.23
2022-08-12T06:27:21.635Z,24.57
2022-08-12T06:30:08.523Z,23.61
2022-08-12T06:32:42.797Z,23.09
2022-08-12T06:35:26.573Z,22.61
2022-08-12T06:38:35.029Z,22.16
2022-08-12T06:41:20.937Z,22.34
2022-08-12T06:44:07.161Z,22.76
2022-08-12T06:46:39.451Z,24.51
2022-08-12T06:49:07.020Z,26.37
2022-08-12T06:51:34.224Z,27.79
2022-08-12T06:54:02.187Z,28.92
2022-08-12T06:57:01.854Z,30.15
2022-08-12T06:59:21.938Z,31.32
2022-08-12T07:01:51.605Z,31.85
2022-08-12T07:04:37.217Z,32.43
2022-08-12T07:07:09.154Z,31.45
2022-08-12T07:10:00.073Z,29.21
2022-08-12T07:12:28.017Z,27.92
2022-08-12T07:14:59.560Z,27.60
2022-08-12T07:17:31.655Z,26.97
2022-08-12T07:20:04.021Z,26.55
2022-08-12T07:22:33.238Z,26.36
2022-08-12T07:25:19.227Z,26.47
2022-08-12T07:27:46.831Z,26.38
2022-08-12T07:30:14.489Z,26.32
2022-08-12T07:32:41.761Z,26.31
2022-08-12T07:35:09.186Z,27.08
2022-08-12T07:37:41.546Z,26.79
2022-08-12T07:40:12.076Z,26.99
2022-08-12T07:42:41.171Z,27.75
2022-08-12T07:45:09.591Z,28.85
2022-08-12T07:47:38.041Z,30.31
2022-08-12T07:50:09.273Z,30.89
2022-08-12T07:52:42.854Z,30.60
2022-08-12T07:55:12.160Z,29.63
2022-08-12T07:57:57.969Z,29.02
2022-08-12T08:00:27.515Z,29.27
2022-08-12T08:02:55.149Z,29.01
2022-08-12T08:05:24.752Z,28.60
2022-08-12T08:08:02.401Z,28.98
2022-08-12T08:10:33.409Z,28.99
2022-08-12T08:13:05.177Z,28.89
2022-08-12T08:16:01.079Z,29.75
2022-08-12T08:18:26.550Z,30.12
2022-08-12T08:20:56.537Z,30.52
2022-08-12T08:23:46.404Z,30.63
2022-08-12T08:26:18.069Z,30.09
2022-08-12T08:28:45.258Z,30.36
2022-08-12T08:31:14.323Z,30.35
2022-08-12T08:34:05.014Z,30.32
2022-08-12T08:36:29.129Z,29.98
2022-08-12T08:38:58.247Z,29.72
2022-08-12T08:42:15.460Z,30.33
2022-08-12T08:44:36.417Z,30.40
2022-08-12T08:47:05.620Z,30.71
2022-08-12T08:49:32.806Z,31.19
2022-08-12T08:52:09.482Z,30.95
2022-08-12T08:54:37.774Z,31.04
2022-08-12T08:57:11.113Z,31.05
2022-08-12T08:59:38.160Z,30.57
2022-08-12T09:02:07.764Z,29.73
2022-08-12T09:05:12.290Z,28.29
2022-08-12T09:07:51.053Z,27.72
2022-08-12T09:10:25.210Z,28.50
2022-08-12T09:13:23.324Z,28.94
2022-08-12T09:15:57.621Z,29.49
2022-08-12T09:21:14.670Z,29.56
2022-08-12T09:23:57.095Z,30.36
2022-08-12T09:26:28.350Z,29.94
2022-08-12T09:28:58.109Z,29.95
2022-08-12T09:32:03.818Z,30.11
2022-08-12T09:34:28.937Z,30.25
2022-08-12T09:37:18.918Z,30.24
2022-08-12T09:40:03.106Z,30.13
2022-08-12T09:43:16.018Z,29.77
2022-08-12T09:46:06.038Z,29.37
2022-08-12T09:48:35.034Z,29.77
2022-08-12T09:51:17.131Z,29.40
2022-08-12T09:54:33.714Z,29.75
2022-08-12T09:57:02.239Z,29.60
2022-08-12T10:00:15.192Z,29.56
2022-08-12T10:02:42.913Z,29.96
2022-08-12T10:05:05.951Z,29.28
2022-08-12T10:07:40.503Z,29.71
2022-08-12T10:10:22.743Z,30.04
2022-08-12T10:13:38.818Z,29.32
2022-08-12T10:16:05.252Z,28.66
2022-08-12T10:18:36.617Z,28.62
2022-08-12T10:21:21.844Z,28.73
2022-08-12T10:23:55.081Z,28.70
2022-08-12T10:26:44.686Z,28.36
2022-08-12T10:30:37.198Z,28.64
2022-08-12T10:32:43.862Z,28.16
2022-08-12T10:35:09.506Z,28.00
2022-08-12T10:38:38.983Z,28.39
2022-08-12T10:40:31.647Z,28.06
2022-08-12T10:43:18.922Z,28.16
2022-08-12T10:45:50.022Z,27.65
2022-08-12T10:48:26.922Z,27.81
2022-08-12T10:52:03.367Z,28.06
2022-08-12T10:53:52.764Z,28.09
2022-08-12T10:56:19.991Z,28.11
2022-08-12T10:58:49.197Z,28.46
2022-08-12T11:03:01.551Z,28.52
2022-08-12T11:04:35.477Z,28.57
2022-08-12T11:07:06.338Z,28.35
2022-08-12T11:10:00.965Z,28.11
2022-08-12T11:12:54.697Z,28.09
2022-08-12T11:15:33.042Z,28.52
2022-08-12T11:18:07.768Z,28.40
2022-08-12T11:20:40.001Z,28.62
2022-08-12T11:23:36.244Z,28.56
2022-08-12T11:26:04.984Z,28.65
2022-08-12T11:28:36.988Z,28.78
2022-08-12T11:31:12.425Z,28.89
2022-08-12T11:34:05.092Z,28.90
2022-08-12T11:36:31.234Z,29.10
2022-08-12T11:39:04.262Z,29.04
2022-08-12T11:41:34.646Z,28.59
2022-08-12T11:44:35.301Z,29.08
2022-08-12T11:46:53.049Z,29.03
2022-08-12T11:49:31.512Z,29.17
2022-08-12T11:52:04.126Z,29.32
2022-08-12T11:54:32.014Z,28.82
2022-08-12T11:57:02.326Z,29.18
2022-08-12T12:02:20.736Z,30.35
2022-08-12T12:04:52.807Z,30.24
2022-08-12T12:07:33.656Z,30.26
2022-08-12T12:10:13.392Z,30.11
2022-08-12T12:12:49.778Z,29.70
2022-08-12T12:15:25.424Z,29.12
2022-08-12T12:18:04.450Z,28.90
2022-08-12T12:20:31.466Z,29.28
2022-08-12T12:22:58.516Z,29.09
2022-08-12T12:25:59.662Z,29.55
2022-08-12T12:28:36.961Z,29.82
2022-08-12T12:31:04.186Z,30.06
2022-08-12T12:33:57.071Z,29.98
2022-08-12T12:36:24.129Z,30.11
2022-08-12T12:38:58.100Z,29.75
2022-08-12T12:42:41.923Z,29.80
2022-08-12T12:44:26.015Z,29.25
2022-08-12T12:47:04.252Z,28.91
2022-08-12T12:49:53.777Z,28.77
2022-08-12T12:52:21.428Z,28.51
2022-08-12T12:54:55.497Z,28.72
2022-08-12T12:57:36.207Z,28.98
2022-08-12T13:00:16.131Z,29.02
2022-08-12T13:02:54.084Z,28.98
2022-08-12T13:05:29.252Z,29.10
2022-08-12T13:08:01.168Z,29.23
2022-08-12T13:10:36.723Z,29.46
2022-08-12T13:14:07.925Z,29.55
2022-08-12T13:15:53.953Z,29.68
2022-08-12T13:18:39.787Z,29.41
2022-08-12T13:21:15.684Z,29.07
2022-08-12T13:23:56.551Z,29.30
2022-08-12T13:26:23.462Z,29.49
2022-08-12T13:28:56.104Z,29.74
2022-08-12T13:31:27.117Z,29.65
2022-08-12T13:34:32.087Z,29.93
2022-08-12T13:36:42.186Z,30.05
2022-08-12T13:39:09.944Z,29.80
2022-08-12T13:41:37.744Z,29.94
2022-08-12T13:44:10.553Z,29.96
2022-08-12T13:46:38.902Z,29.56
2022-08-12T13:49:07.808Z,29.19
2022-08-12T13:51:41.249Z,29.15
2022-08-12T13:54:13.880Z,29.69
2022-08-12T13:56:41.774Z,29.79
2022-08-12T13:59:20.506Z,29.58
2022-08-12T14:01:56.888Z,29.79
2022-08-12T14:04:24.874Z,29.92
2022-08-12T14:06:54.004Z,29.50
2022-08-12T14:09:21.005Z,29.30
2022-08-12T14:11:53.978Z,29.24
2022-08-12T14:14:31.663Z,29.17
2022-08-12T14:17:09.974Z,29.17
2022-08-12T14:20:00.697Z,28.95
2022-08-12T14:22:28.520Z,29.05
2022-08-12T14:24:58.331Z,29.26
2022-08-12T14:28:03.254Z,29.34
2022-08-12T14:30:15.516Z,29.16
2022-08-12T14:32:44.170Z,29.10
2022-08-12T14:35:12.491Z,29.17
2022-08-12T14:37:57.828Z,29.03
2022-08-12T14:40:29.906Z,29.07
2022-08-12T14:42:58.821Z,29.06
2022-08-12T14:45:45.071Z,28.94
2022-08-12T14:48:18.535Z,28.73
2022-08-12T14:51:02.649Z,28.53
2022-08-12T14:55:31.951Z,28.50
2022-08-12T14:59:55.707Z,29.00
2022-08-12T15:02:21.036Z,29.09
2022-08-12T15:04:55.920Z,29.02
2022-08-12T15:07:33.671Z,29.04
2022-08-12T15:10:10.855Z,28.89
2022-08-12T15:12:40.754Z,28.88
2022-08-12T15:15:10.301Z,28.86
2022-08-12T15:17:39.107Z,28.70
2022-08-12T15:20:28.413Z,28.73
2022-08-12T15:22:56.641Z,28.61
2022-08-12T15:25:27.067Z,28.65
2022-08-12T15:28:03.877Z,28.55
2022-08-12T15:30:37.294Z,28.60
2022-08-12T15:33:14.769Z,28.61
2022-08-12T15:35:52.934Z,28.66
2022-08-12T15:38:25.198Z,28.80
2022-08-12T15:40:54.603Z,28.81
2022-08-12T15:43:52.078Z,28.63
2022-08-12T15:46:14.790Z,28.53
2022-08-12T15:48:46.791Z,28.40
2022-08-12T15:51:57.243Z,28.46
2022-08-12T15:54:30.872Z,28.47
2022-08-12T15:57:05.521Z,28.41
2022-08-12T16:00:00.046Z,28.45
2022-08-12T16:02:20.575Z,28.28
2022-08-12T16:04:50.529Z,28.20
2022-08-12T16:07:21.740Z,28.11
2022-08-12T16:10:07.018Z,28.17
2022-08-12T16:12:54.410Z,28.15
2022-08-12T16:15:26.260Z,28.17
2022-08-12T16:18:14.574Z,28.11
2022-08-12T16:20:46.458Z,27.98
2022-08-12T16:23:36.514Z,27.96
2022-08-12T16:26:14.121Z,28.03
2022-08-12T16:28:47.381Z,28.09
2022-08-12T16:31:23.484Z,28.04
2022-08-12T16:34:00.012Z,27.94
2022-08-12T16:36:29.634Z,27.88
2022-08-12T16:38:57.469Z,27.92
2022-08-12T16:41:37.839Z,27.96
2022-08-12T16:44:06.267Z,28.00
2022-08-12T16:46:36.419Z,27.94
2022-08-12T16:49:13.029Z,27.88
2022-08-12T16:51:46.634Z,27.80
2022-08-12T16:54:17.005Z,27.78
2022-08-12T16:56:57.521Z,27.66
2022-08-12T16:59:30.767Z,27.55
2022-08-12T17:02:31.546Z,27.62
2022-08-12T17:05:03.661Z,27.56
2022-08-12T17:07:37.953Z,27.51
2022-08-12T17:10:07.933Z,27.53
2022-08-12T17:12:37.304Z,27.53
2022-08-12T17:15:50.332Z,27.49
2022-08-12T17:18:38.901Z,27.37
2022-08-12T17:20:46.713Z,27.42
2022-08-12T17:23:19.305Z,27.34
2022-08-12T17:25:50.236Z,27.44
2022-08-12T17:28:19.957Z,27.45
2022-08-12T17:30:57.438Z,27.43
2022-08-12T17:33:28.005Z,27.29
2022-08-12T17:36:03.601Z,27.15
2022-08-12T17:38:34.761Z,27.13
2022-08-12T17:41:08.202Z,27.02
2022-08-12T17:43:58.534Z,26.95
2022-08-12T17:46:33.431Z,26.88
2022-08-12T17:49:06.822Z,26.81
2022-08-12T17:52:02.082Z,26.73
2022-08-12T17:54:31.178Z,26.62
2022-08-12T17:57:00.261Z,26.47
2022-08-12T17:59:48.633Z,26.45
2022-08-12T18:02:17.873Z,26.34
2022-08-12T18:05:05.127Z,26.34
2022-08-12T18:07:39.496Z,26.22
2022-08-12T18:10:07.263Z,26.13
2022-08-12T18:12:52.370Z,26.04
2022-08-12T18:15:26.057Z,26.06
2022-08-12T18:17:59.900Z,25.97
2022-08-12T18:20:29.052Z,25.91
2022-08-12T18:22:59.478Z,25.94
2022-08-12T18:26:14.111Z,25.89
2022-08-12T18:28:40.432Z,25.88
2022-08-12T18:31:07.705Z,25.86
2022-08-12T18:33:43.718Z,25.71
2022-08-12T18:36:13.669Z,25.72
2022-08-12T18:38:44.969Z,25.50
2022-08-12T18:41:34.278Z,25.36
2022-08-12T18:44:09.618Z,25.27
2022-08-12T18:46:55.804Z,25.18
2022-08-12T18:49:28.604Z,25.10
2022-08-12T18:52:04.458Z,25.06
2022-08-12T18:54:49.015Z,25.01
2022-08-12T18:58:05.895Z,24.79
2022-08-12T19:00:18.882Z,24.68
2022-08-12T19:02:53.148Z,24.54
2022-08-12T19:05:52.909Z,24.32
2022-08-12T19:08:13.310Z,24.26
2022-08-12T19:10:42.320Z,24.26
2022-08-12T19:13:37.386Z,24.30
2022-08-12T19:16:10.745Z,24.29
2022-08-12T19:18:44.801Z,24.30
2022-08-12T19:21:16.274Z,24.31
2022-08-12T19:24:04.909Z,24.27
2022-08-12T19:26:35.082Z,24.20
2022-08-12T19:29:05.065Z,24.18
2022-08-12T19:31:58.029Z,24.18
2022-08-12T19:37:38.334Z,24.06
2022-08-12T19:40:31.711Z,24.06
2022-08-12T19:42:57.577Z,24.01
2022-08-12T19:45:43.182Z,23.96
2022-08-12T19:48:17.948Z,23.95
2022-08-12T19:50:50.238Z,23.90
2022-08-12T19:53:22.563Z,23.85
2022-08-12T19:55:55.242Z,23.84
2022-08-12T19:58:24.307Z,23.85
2022-08-12T20:00:53.634Z,23.84
2022-08-12T20:03:38.033Z,23.84
2022-08-12T20:06:15.805Z,23.78
2022-08-12T20:08:55.873Z,23.65
2022-08-12T20:12:10.131Z,23.50
2022-08-12T20:14:18.664Z,23.35
2022-08-12T20:16:52.637Z,23.28
2022-08-12T20:19:24.591Z,23.07
2022-08-12T20:22:14.734Z,22.97
2022-08-12T20:24:42.800Z,22.92
2022-08-12T20:27:29.224Z,22.91
2022-08-12T20:30:01.110Z,22.73
2022-08-12T20:32:29.710Z,22.66
2022-08-12T20:35:10.088Z,22.64
2022-08-12T20:38:07.407Z,22.57
2022-08-12T20:40:26.611Z,22.47
2022-08-12T20:42:56.207Z,22.36
2022-08-12T20:45:23.078Z,22.33
2022-08-12T20:48:02.003Z,22.31
2022-08-12T20:50:31.693Z,22.30
2022-08-12T20:53:01.389Z,22.31
2022-08-12T20:55:42.152Z,22.38
2022-08-12T20:58:10.834Z,22.44
2022-08-12T21:00:38.607Z,22.47
2022-08-12T21:03:24.126Z,22.49
2022-08-12T21:06:13.342Z,22.73
2022-08-12T21:08:42.792Z,22.73
2022-08-12T21:11:10.622Z,22.72
2022-08-12T21:13:39.473Z,22.65
2022-08-12T21:16:09.854Z,22.62
2022-08-12T21:18:38.192Z,22.59
2022-08-12T21:21:06.593Z,22.56
2022-08-12T21:23:38.386Z,22.54
2022-08-12T21:26:12.238Z,22.59
2022-08-12T21:28:58.867Z,22.61
2022-08-12T21:32:35.939Z,22.68
2022-08-12T21:34:26.188Z,22.67
2022-08-12T21:37:13.279Z,22.71
2022-08-12T21:39:52.334Z,22.74
2022-08-12T21:42:20.278Z,22.75
2022-08-12T21:45:45.684Z,22.78
2022-08-12T21:47:40.889Z,22.77
2022-08-12T21:50:09.129Z,22.82
2022-08-12T21:52:40.446Z,22.82
2022-08-12T21:55:19.288Z,22.85
2022-08-12T21:57:54.025Z,22.79
2022-08-12T22:00:34.277Z,22.85
2022-08-12T22:03:54.971Z,22.85
2022-08-12T22:06:25.872Z,22.92
2022-08-12T22:08:57.727Z,22.85
2022-08-12T22:11:42.407Z,22.77
2022-08-12T22:14:21.617Z,22.76
2022-08-12T22:16:53.238Z,22.80
2022-08-12T22:19:22.647Z,22.89
2022-08-12T22:21:53.973Z,22.92
2022-08-12T22:24:26.402Z,22.91
2022-08-12T22:27:18.225Z,22.93
2022-08-12T22:30:08.636Z,22.98
2022-08-12T22:32:49.865Z,22.97
2022-08-12T22:35:56.050Z,22.95
2022-08-12T22:38:26.783Z,22.99
2022-08-12T22:41:01.102Z,23.04
2022-08-12T22:43:59.070Z,23.00
2022-08-12T22:46:34.648Z,23.07
2022-08-12T22:49:01.652Z,23.05
2022-08-12T22:51:57.473Z,23.09
2022-08-12T22:54:35.867Z,23.14
2022-08-12T22:57:12.437Z,23.17
2022-08-12T22:59:51.237Z,23.15
2022-08-12T23:02:30.916Z,23.10
2022-08-12T23:04:58.595Z,23.13
2022-08-12T23:07:25.688Z,23.15
2022-08-12T23:09:53.701Z,23.12
2022-08-12T23:12:46.611Z,23.08
2022-08-12T23:15:14.914Z,23.06
2022-08-12T23:17:42.665Z,23.04
2022-08-12T23:20:11.467Z,23.04
2022-08-12T23:22:40.247Z,23.01
2022-08-12T23:25:19.248Z,22.99
2022-08-12T23:28:29.725Z,22.93
2022-08-12T23:31:04.691Z,22.93
2022-08-12T23:34:02.696Z,22.82
2022-08-12T23:36:39.100Z,22.83
2022-08-12T23:40:15.376Z,22.87
2022-08-12T23:42:18.125Z,22.85
2022-08-12T23:44:48.651Z,22.79
2022-08-12T23:47:21.422Z,22.75
2022-08-12T23:49:57.601Z,22.73
2022-08-12T23:52:28.540Z,22.77
2022-08-12T23:55:23.752Z,22.74
2022-08-12T23:58:20.936Z,22.73
